Terminal Aerodrome Forecast
Issued by NWS

Home | Current Version | Previous Version | Text Only | Print | Product List | Glossary On
Versions: 1 2 3 4 5 6 7 8 9 10 11 12 13 14 15 16 17 18 19 20 21 22 23 24
000
FTUS41 KBUF 270547
TAFJHW
TAF
KJHW 270547Z 2706/2806 19006KT P6SM FEW060 BKN250
     FM271000 20004KT 1SM BR BKN007
     FM271230 21006KT P6SM BKN015
     FM271400 22006KT P6SM SCT050 BKN200
     FM271800 24008KT P6SM VCSH SCT040 BKN060
     FM272000 26008KT P6SM SCT050 BKN200
     FM280000 VRB03KT P6SM SCT100 BKN250
      AMD LTD TO CLD VIS AND WIND=

USA.gov is the U.S. government's official web portal to all federal, state and local government web resources and services.